sensor_id;sensor_type;location;lat;lon;timestamp;P1;durP1;ratioP1;P2;durP2;ratioP2
793;SDS011;380;48.738;9.214;2023-08-30T00:00:19;8.32;;;7.50;;
793;SDS011;380;48.738;9.214;2023-08-30T00:02:47;7.85;;;7.20;;
793;SDS011;380;48.738;9.214;2023-08-30T00:05:13;9.00;;;8.20;;
793;SDS011;380;48.738;9.214;2023-08-30T00:07:39;7.28;;;6.57;;
793;SDS011;380;48.738;9.214;2023-08-30T00:10:06;9.13;;;8.23;;
793;SDS011;380;48.738;9.214;2023-08-30T00:12:32;8.93;;;8.02;;
793;SDS011;380;48.738;9.214;2023-08-30T00:14:58;7.93;;;7.13;;
793;SDS011;380;48.738;9.214;2023-08-30T00:17:24;9.50;;;8.60;;
793;SDS011;380;48.738;9.214;2023-08-30T00:19:50;11.35;;;7.40;;
793;SDS011;380;48.738;9.214;2023-08-30T00:22:18;8.98;;;8.07;;
793;SDS011;380;48.738;9.214;2023-08-30T00:24:44;9.00;;;8.10;;
793;SDS011;380;48.738;9.214;2023-08-30T00:27:12;8.52;;;7.65;;
793;SDS011;380;48.738;9.214;2023-08-30T00:29:38;9.20;;;8.30;;
793;SDS011;380;48.738;9.214;2023-08-30T00:32:04;8.35;;;7.55;;
793;SDS011;380;48.738;9.214;2023-08-30T00:34:30;10.10;;;8.43;;
793;SDS011;380;48.738;9.214;2023-08-30T00:36:56;11.90;;;7.90;;
793;SDS011;380;48.738;9.214;2023-08-30T00:39:22;9.82;;;8.93;;
793;SDS011;380;48.738;9.214;2023-08-30T00:41:48;7.78;;;7.00;;
793;SDS011;380;48.738;9.214;2023-08-30T00:44:14;9.55;;;8.65;;
793;SDS011;380;48.738;9.214;2023-08-30T00:46:40;7.75;;;7.05;;
793;SDS011;380;48.738;9.214;2023-08-30T00:49:06;9.23;;;8.40;;
793;SDS011;380;48.738;9.214;2023-08-30T00:51:32;8.60;;;7.80;;
793;SDS011;380;48.738;9.214;2023-08-30T00:53:59;9.98;;;9.07;;
793;SDS011;380;48.738;9.214;2023-08-30T00:56:26;9.05;;;8.20;;
793;SDS011;380;48.738;9.214;2023-08-30T00:58:52;8.57;;;7.72;;
793;SDS011;380;48.738;9.214;2023-08-30T01:01:18;9.38;;;8.57;;
793;SDS011;380;48.738;9.214;2023-08-30T01:03:45;8.52;;;7.72;;
793;SDS011;380;48.738;9.214;2023-08-30T01:06:11;9.05;;;8.18;;
793;SDS011;380;48.738;9.214;2023-08-30T01:08:38;10.38;;;8.25;;
793;SDS011;380;48.738;9.214;2023-08-30T01:11:11;9.55;;;8.30;;
793;SDS011;380;48.738;9.214;2023-08-30T01:13:40;8.93;;;8.02;;
793;SDS011;380;48.738;9.214;2023-08-30T01:16:07;8.65;;;7.82;;
793;SDS011;380;48.738;9.214;2023-08-30T01:18:34;11.02;;;7.55;;
793;SDS011;380;48.738;9.214;2023-08-30T01:21:01;8.13;;;7.40;;
793;SDS011;380;48.738;9.214;2023-08-30T01:23:36;8.52;;;7.65;;
793;SDS011;380;48.738;9.214;2023-08-30T01:26:24;9.32;;;8.52;;
793;SDS011;380;48.738;9.214;2023-08-30T01:28:52;8.73;;;7.82;;
793;SDS011;380;48.738;9.214;2023-08-30T01:31:19;9.73;;;8.82;;
793;SDS011;380;48.738;9.214;2023-08-30T01:33:45;8.98;;;8.20;;
793;SDS011;380;48.738;9.214;2023-08-30T01:36:11;9.52;;;8.63;;
793;SDS011;380;48.738;9.214;2023-08-30T01:38:38;8.68;;;7.88;;
793;SDS011;380;48.738;9.214;2023-08-30T01:41:04;9.18;;;8.27;;
793;SDS011;380;48.738;9.214;2023-08-30T01:43:30;10.13;;;9.23;;
793;SDS011;380;48.738;9.214;2023-08-30T01:45:57;8.75;;;8.05;;
793;SDS011;380;48.738;9.214;2023-08-30T01:48:27;10.13;;;8.45;;
793;SDS011;380;48.738;9.214;2023-08-30T01:50:54;9.40;;;8.50;;
793;SDS011;380;48.738;9.214;2023-08-30T01:53:23;9.50;;;8.60;;
793;SDS011;380;48.738;9.214;2023-08-30T01:55:50;10.10;;;9.20;;
793;SDS011;380;48.738;9.214;2023-08-30T01:58:15;9.20;;;8.27;;
793;SDS011;380;48.738;9.214;2023-08-30T02:00:41;9.70;;;8.70;;
793;SDS011;380;48.738;9.214;2023-08-30T02:03:11;8.43;;;7.72;;
793;SDS011;380;48.738;9.214;2023-08-30T02:05:39;9.48;;;8.63;;
793;SDS011;380;48.738;9.214;2023-08-30T02:10:34;10.70;;;8.30;;
793;SDS011;380;48.738;9.214;2023-08-30T02:13:01;9.00;;;8.20;;
793;SDS011;380;48.738;9.214;2023-08-30T02:15:27;9.02;;;8.23;;
793;SDS011;380;48.738;9.214;2023-08-30T02:17:55;9.82;;;8.85;;
793;SDS011;380;48.738;9.214;2023-08-30T02:20:21;10.75;;;8.60;;
793;SDS011;380;48.738;9.214;2023-08-30T02:22:47;8.50;;;7.63;;
793;SDS011;380;48.738;9.214;2023-08-30T02:25:13;9.80;;;8.90;;
793;SDS011;380;48.738;9.214;2023-08-30T02:27:39;9.20;;;8.32;;
793;SDS011;380;48.738;9.214;2023-08-30T02:30:05;9.20;;;8.30;;
793;SDS011;380;48.738;9.214;2023-08-30T02:32:31;9.68;;;8.77;;
793;SDS011;380;48.738;9.214;2023-08-30T02:34:57;9.40;;;8.35;;
793;SDS011;380;48.738;9.214;2023-08-30T02:37:23;10.43;;;9.35;;
793;SDS011;380;48.738;9.214;2023-08-30T02:39:50;8.13;;;7.43;;
793;SDS011;380;48.738;9.214;2023-08-30T02:42:16;8.20;;;7.50;;
793;SDS011;380;48.738;9.214;2023-08-30T02:44:41;8.60;;;7.80;;
793;SDS011;380;48.738;9.214;2023-08-30T02:47:07;9.77;;;8.88;;
793;SDS011;380;48.738;9.214;2023-08-30T02:49:33;8.60;;;7.82;;
793;SDS011;380;48.738;9.214;2023-08-30T02:51:59;8.75;;;7.85;;
793;SDS011;380;48.738;9.214;2023-08-30T02:54:25;8.68;;;7.88;;
793;SDS011;380;48.738;9.214;2023-08-30T02:56:51;8.45;;;7.65;;
793;SDS011;380;48.738;9.214;2023-08-30T02:59:17;8.85;;;8.07;;
793;SDS011;380;48.738;9.214;2023-08-30T03:01:43;8.10;;;7.40;;
793;SDS011;380;48.738;9.214;2023-08-30T03:04:09;8.05;;;7.35;;
793;SDS011;380;48.738;9.214;2023-08-30T03:06:35;9.52;;;8.63;;
793;SDS011;380;48.738;9.214;2023-08-30T03:09:01;8.95;;;8.05;;
793;SDS011;380;48.738;9.214;2023-08-30T03:11:31;10.73;;;9.20;;
793;SDS011;380;48.738;9.214;2023-08-30T03:13:57;8.13;;;7.32;;
793;SDS011;380;48.738;9.214;2023-08-30T03:16:23;8.40;;;7.60;;
793;SDS011;380;48.738;9.214;2023-08-30T03:18:49;11.02;;;8.18;;
793;SDS011;380;48.738;9.214;2023-08-30T03:21:15;9.18;;;8.27;;
793;SDS011;380;48.738;9.214;2023-08-30T03:23:41;7.80;;;7.10;;
793;SDS011;380;48.738;9.214;2023-08-30T03:26:15;8.77;;;7.88;;
793;SDS011;380;48.738;9.214;2023-08-30T03:28:41;8.40;;;7.57;;
793;SDS011;380;48.738;9.214;2023-08-30T03:31:17;8.88;;;8.07;;
793;SDS011;380;48.738;9.214;2023-08-30T03:33:43;9.02;;;8.13;;
793;SDS011;380;48.738;9.214;2023-08-30T03:36:10;8.93;;;8.02;;
793;SDS011;380;48.738;9.214;2023-08-30T03:38:36;9.43;;;8.13;;
793;SDS011;380;48.738;9.214;2023-08-30T03:41:03;8.25;;;7.45;;
793;SDS011;380;48.738;9.214;2023-08-30T03:43:32;7.93;;;7.18;;
793;SDS011;380;48.738;9.214;2023-08-30T03:46:01;8.63;;;7.82;;
793;SDS011;380;48.738;9.214;2023-08-30T03:48:30;7.72;;;7.07;;
793;SDS011;380;48.738;9.214;2023-08-30T03:50:57;8.65;;;7.85;;
793;SDS011;380;48.738;9.214;2023-08-30T03:53:23;9.00;;;8.13;;
793;SDS011;380;48.738;9.214;2023-08-30T03:55:49;9.27;;;8.38;;
793;SDS011;380;48.738;9.214;2023-08-30T03:58:15;8.90;;;8.10;;
793;SDS011;380;48.738;9.214;2023-08-30T04:00:41;9.90;;;8.90;;
793;SDS011;380;48.738;9.214;2023-08-30T04:03:08;11.00;;;8.20;;
793;SDS011;380;48.738;9.214;2023-08-30T04:05:34;9.35;;;8.15;;
793;SDS011;380;48.738;9.214;2023-08-30T04:08:01;9.50;;;8.60;;
793;SDS011;380;48.738;9.214;2023-08-30T04:10:27;8.98;;;8.10;;
793;SDS011;380;48.738;9.214;2023-08-30T04:12:53;10.07;;;9.10;;
793;SDS011;380;48.738;9.214;2023-08-30T04:15:19;9.73;;;8.82;;
793;SDS011;380;48.738;9.214;2023-08-30T04:17:45;9.18;;;8.27;;
793;SDS011;380;48.738;9.214;2023-08-30T04:20:11;10.30;;;9.27;;
793;SDS011;380;48.738;9.214;2023-08-30T04:22:37;8.80;;;7.97;;
793;SDS011;380;48.738;9.214;2023-08-30T04:25:03;9.80;;;8.80;;
793;SDS011;380;48.738;9.214;2023-08-30T04:27:29;9.13;;;8.32;;
793;SDS011;380;48.738;9.214;2023-08-30T04:29:55;10.65;;;7.85;;
793;SDS011;380;48.738;9.214;2023-08-30T04:32:21;10.30;;;9.30;;
793;SDS011;380;48.738;9.214;2023-08-30T04:34:47;9.80;;;8.90;;
793;SDS011;380;48.738;9.214;2023-08-30T04:37:13;9.48;;;8.57;;
793;SDS011;380;48.738;9.214;2023-08-30T04:39:40;10.40;;;9.50;;
793;SDS011;380;48.738;9.214;2023-08-30T04:42:06;11.13;;;9.98;;
793;SDS011;380;48.738;9.214;2023-08-30T04:44:32;10.65;;;9.60;;
793;SDS011;380;48.738;9.214;2023-08-30T04:46:58;11.40;;;9.27;;
793;SDS011;380;48.738;9.214;2023-08-30T04:49:24;10.65;;;9.70;;
793;SDS011;380;48.738;9.214;2023-08-30T04:51:50;10.80;;;9.70;;
793;SDS011;380;48.738;9.214;2023-08-30T04:54:16;11.65;;;10.00;;
793;SDS011;380;48.738;9.214;2023-08-30T04:56:42;10.68;;;9.68;;
793;SDS011;380;48.738;9.214;2023-08-30T04:59:08;10.80;;;9.73;;
793;SDS011;380;48.738;9.214;2023-08-30T05:01:34;10.57;;;9.48;;
793;SDS011;380;48.738;9.214;2023-08-30T05:04:00;10.20;;;9.20;;
793;SDS011;380;48.738;9.214;2023-08-30T05:06:27;10.07;;;8.65;;
793;SDS011;380;48.738;9.214;2023-08-30T05:08:53;9.65;;;8.70;;
793;SDS011;380;48.738;9.214;2023-08-30T05:11:22;9.80;;;8.90;;
793;SDS011;380;48.738;9.214;2023-08-30T05:13:48;10.45;;;9.45;;
793;SDS011;380;48.738;9.214;2023-08-30T05:16:14;9.82;;;8.90;;
793;SDS011;380;48.738;9.214;2023-08-30T05:18:42;9.25;;;8.45;;
793;SDS011;380;48.738;9.214;2023-08-30T05:21:08;10.63;;;9.52;;
793;SDS011;380;48.738;9.214;2023-08-30T05:23:34;9.95;;;8.95;;
793;SDS011;380;48.738;9.214;2023-08-30T05:26:00;9.80;;;8.93;;
793;SDS011;380;48.738;9.214;2023-08-30T05:28:26;9.60;;;8.80;;
793;SDS011;380;48.738;9.214;2023-08-30T05:30:52;10.52;;;9.52;;
793;SDS011;380;48.738;9.214;2023-08-30T05:33:18;11.25;;;10.15;;
793;SDS011;380;48.738;9.214;2023-08-30T05:35:44;11.38;;;9.27;;
793;SDS011;380;48.738;9.214;2023-08-30T05:38:10;10.15;;;9.30;;
793;SDS011;380;48.738;9.214;2023-08-30T05:40:36;9.45;;;8.55;;
793;SDS011;380;48.738;9.214;2023-08-30T05:43:07;10.20;;;9.30;;
793;SDS011;380;48.738;9.214;2023-08-30T05:45:33;9.55;;;8.65;;
793;SDS011;380;48.738;9.214;2023-08-30T05:47:59;10.88;;;9.80;;
793;SDS011;380;48.738;9.214;2023-08-30T05:50:25;10.43;;;9.50;;
793;SDS011;380;48.738;9.214;2023-08-30T05:52:51;10.88;;;9.82;;
793;SDS011;380;48.738;9.214;2023-08-30T05:55:17;9.82;;;8.93;;
793;SDS011;380;48.738;9.214;2023-08-30T05:57:43;11.73;;;9.60;;
793;SDS011;380;48.738;9.214;2023-08-30T06:00:09;9.35;;;8.45;;
793;SDS011;380;48.738;9.214;2023-08-30T06:02:35;11.10;;;10.15;;
793;SDS011;380;48.738;9.214;2023-08-30T06:05:01;12.05;;;9.73;;
793;SDS011;380;48.738;9.214;2023-08-30T06:07:27;10.60;;;9.65;;
793;SDS011;380;48.738;9.214;2023-08-30T06:09:53;11.48;;;10.45;;
793;SDS011;380;48.738;9.214;2023-08-30T06:12:19;11.25;;;10.23;;
793;SDS011;380;48.738;9.214;2023-08-30T06:14:45;11.77;;;10.65;;
793;SDS011;380;48.738;9.214;2023-08-30T06:17:16;10.15;;;9.25;;
793;SDS011;380;48.738;9.214;2023-08-30T06:19:43;11.15;;;10.18;;
793;SDS011;380;48.738;9.214;2023-08-30T06:22:09;10.73;;;9.73;;
793;SDS011;380;48.738;9.214;2023-08-30T06:24:35;11.30;;;10.18;;
793;SDS011;380;48.738;9.214;2023-08-30T06:27:01;10.88;;;9.80;;
793;SDS011;380;48.738;9.214;2023-08-30T06:29:27;10.10;;;9.18;;
793;SDS011;380;48.738;9.214;2023-08-30T06:31:52;10.10;;;9.20;;
793;SDS011;380;48.738;9.214;2023-08-30T06:34:18;11.23;;;10.18;;
793;SDS011;380;48.738;9.214;2023-08-30T06:36:45;10.43;;;9.43;;
793;SDS011;380;48.738;9.214;2023-08-30T06:39:11;10.18;;;9.20;;
793;SDS011;380;48.738;9.214;2023-08-30T06:41:37;9.57;;;8.65;;
793;SDS011;380;48.738;9.214;2023-08-30T06:44:02;10.05;;;9.05;;
793;SDS011;380;48.738;9.214;2023-08-30T06:46:29;9.93;;;9.00;;
793;SDS011;380;48.738;9.214;2023-08-30T06:48:55;10.45;;;9.45;;
793;SDS011;380;48.738;9.214;2023-08-30T06:51:20;10.13;;;9.18;;
793;SDS011;380;48.738;9.214;2023-08-30T06:53:46;10.40;;;9.38;;
793;SDS011;380;48.738;9.214;2023-08-30T06:56:12;9.93;;;9.02;;
793;SDS011;380;48.738;9.214;2023-08-30T06:58:41;9.60;;;8.68;;
793;SDS011;380;48.738;9.214;2023-08-30T07:01:07;10.40;;;9.30;;
793;SDS011;380;48.738;9.214;2023-08-30T07:03:33;9.40;;;8.50;;
793;SDS011;380;48.738;9.214;2023-08-30T07:05:59;10.23;;;9.32;;
793;SDS011;380;48.738;9.214;2023-08-30T07:08:25;8.77;;;7.97;;
793;SDS011;380;48.738;9.214;2023-08-30T07:10:51;8.40;;;7.60;;
793;SDS011;380;48.738;9.214;2023-08-30T07:13:17;8.88;;;8.02;;
793;SDS011;380;48.738;9.214;2023-08-30T07:15:43;8.45;;;7.65;;
793;SDS011;380;48.738;9.214;2023-08-30T07:18:09;10.57;;;9.57;;
793;SDS011;380;48.738;9.214;2023-08-30T07:20:35;9.80;;;8.70;;
793;SDS011;380;48.738;9.214;2023-08-30T07:23:01;10.05;;;8.38;;
793;SDS011;380;48.738;9.214;2023-08-30T07:25:29;8.90;;;7.97;;
793;SDS011;380;48.738;9.214;2023-08-30T07:27:55;8.32;;;7.53;;
793;SDS011;380;48.738;9.214;2023-08-30T07:30:21;8.75;;;7.95;;
793;SDS011;380;48.738;9.214;2023-08-30T07:32:47;7.82;;;7.18;;
793;SDS011;380;48.738;9.214;2023-08-30T07:35:13;8.68;;;7.75;;
793;SDS011;380;48.738;9.214;2023-08-30T07:37:39;7.55;;;6.75;;
793;SDS011;380;48.738;9.214;2023-08-30T07:40:05;6.75;;;6.07;;
793;SDS011;380;48.738;9.214;2023-08-30T07:42:32;6.97;;;6.28;;
793;SDS011;380;48.738;9.214;2023-08-30T07:44:58;8.55;;;7.32;;
793;SDS011;380;48.738;9.214;2023-08-30T07:47:24;7.85;;;6.97;;
793;SDS011;380;48.738;9.214;2023-08-30T07:49:49;8.02;;;7.25;;
793;SDS011;380;48.738;9.214;2023-08-30T07:52:15;7.50;;;6.43;;
793;SDS011;380;48.738;9.214;2023-08-30T07:54:41;8.02;;;7.07;;
793;SDS011;380;48.738;9.214;2023-08-30T07:57:07;7.68;;;6.97;;
793;SDS011;380;48.738;9.214;2023-08-30T07:59:34;7.68;;;6.93;;
793;SDS011;380;48.738;9.214;2023-08-30T08:02:01;8.10;;;7.32;;
793;SDS011;380;48.738;9.214;2023-08-30T08:04:27;8.02;;;7.32;;
793;SDS011;380;48.738;9.214;2023-08-30T08:06:53;8.30;;;7.32;;
793;SDS011;380;48.738;9.214;2023-08-30T08:09:19;7.05;;;6.35;;
793;SDS011;380;48.738;9.214;2023-08-30T08:11:46;8.70;;;6.63;;
793;SDS011;380;48.738;9.214;2023-08-30T08:14:12;8.82;;;6.45;;
793;SDS011;380;48.738;9.214;2023-08-30T08:16:38;6.63;;;6.00;;
793;SDS011;380;48.738;9.214;2023-08-30T08:19:04;6.32;;;5.72;;
793;SDS011;380;48.738;9.214;2023-08-30T08:21:32;6.47;;;5.88;;
793;SDS011;380;48.738;9.214;2023-08-30T08:23:58;6.82;;;6.18;;
793;SDS011;380;48.738;9.214;2023-08-30T08:26:24;6.72;;;6.07;;
793;SDS011;380;48.738;9.214;2023-08-30T08:28:50;6.38;;;5.65;;
793;SDS011;380;48.738;9.214;2023-08-30T08:31:16;6.40;;;5.75;;
793;SDS011;380;48.738;9.214;2023-08-30T08:33:43;6.13;;;5.53;;
793;SDS011;380;48.738;9.214;2023-08-30T08:36:09;6.95;;;5.57;;
793;SDS011;380;48.738;9.214;2023-08-30T08:38:35;5.97;;;5.28;;
793;SDS011;380;48.738;9.214;2023-08-30T08:41:06;6.65;;;5.95;;
793;SDS011;380;48.738;9.214;2023-08-30T08:43:33;5.95;;;5.35;;
793;SDS011;380;48.738;9.214;2023-08-30T08:46:01;5.78;;;5.28;;
793;SDS011;380;48.738;9.214;2023-08-30T08:48:28;6.30;;;5.10;;
793;SDS011;380;48.738;9.214;2023-08-30T08:50:54;4.53;;;4.13;;
793;SDS011;380;48.738;9.214;2023-08-30T08:53:21;6.00;;;4.78;;
793;SDS011;380;48.738;9.214;2023-08-30T08:55:48;7.03;;;5.45;;
793;SDS011;380;48.738;9.214;2023-08-30T08:58:14;5.22;;;4.63;;
793;SDS011;380;48.738;9.214;2023-08-30T09:00:42;5.47;;;4.97;;
793;SDS011;380;48.738;9.214;2023-08-30T09:03:08;5.28;;;4.50;;
793;SDS011;380;48.738;9.214;2023-08-30T09:05:34;5.32;;;4.82;;
793;SDS011;380;48.738;9.214;2023-08-30T09:08:03;6.00;;;5.28;;
793;SDS011;380;48.738;9.214;2023-08-30T09:10:31;4.75;;;4.28;;
793;SDS011;380;48.738;9.214;2023-08-30T09:12:57;5.13;;;4.18;;
793;SDS011;380;48.738;9.214;2023-08-30T09:15:30;7.97;;;3.90;;
793;SDS011;380;48.738;9.214;2023-08-30T09:17:56;6.28;;;4.63;;
793;SDS011;380;48.738;9.214;2023-08-30T09:20:22;5.40;;;4.85;;
793;SDS011;380;48.738;9.214;2023-08-30T09:22:48;6.18;;;4.72;;
793;SDS011;380;48.738;9.214;2023-08-30T09:25:22;3.58;;;3.20;;
793;SDS011;380;48.738;9.214;2023-08-30T09:27:49;5.10;;;4.22;;
793;SDS011;380;48.738;9.214;2023-08-30T09:30:20;3.42;;;3.13;;
793;SDS011;380;48.738;9.214;2023-08-30T09:32:46;4.43;;;4.03;;
793;SDS011;380;48.738;9.214;2023-08-30T09:35:12;3.90;;;3.40;;
793;SDS011;380;48.738;9.214;2023-08-30T09:37:38;8.68;;;3.78;;
793;SDS011;380;48.738;9.214;2023-08-30T09:40:05;3.45;;;3.00;;
793;SDS011;380;48.738;9.214;2023-08-30T09:42:32;4.30;;;3.10;;
793;SDS011;380;48.738;9.214;2023-08-30T09:44:58;3.63;;;2.88;;
793;SDS011;380;48.738;9.214;2023-08-30T09:47:24;3.58;;;3.25;;
793;SDS011;380;48.738;9.214;2023-08-30T09:49:54;3.33;;;2.92;;
793;SDS011;380;48.738;9.214;2023-08-30T09:52:20;3.22;;;2.88;;
793;SDS011;380;48.738;9.214;2023-08-30T09:54:48;3.60;;;3.10;;
793;SDS011;380;48.738;9.214;2023-08-30T09:57:15;3.80;;;3.40;;
793;SDS011;380;48.738;9.214;2023-08-30T09:59:41;3.97;;;3.22;;
793;SDS011;380;48.738;9.214;2023-08-30T10:02:08;4.45;;;3.10;;
793;SDS011;380;48.738;9.214;2023-08-30T10:04:34;3.50;;;2.60;;
793;SDS011;380;48.738;9.214;2023-08-30T10:07:00;3.40;;;3.10;;
793;SDS011;380;48.738;9.214;2023-08-30T10:09:29;3.40;;;2.72;;
793;SDS011;380;48.738;9.214;2023-08-30T10:11:55;3.42;;;2.38;;
793;SDS011;380;48.738;9.214;2023-08-30T10:14:23;3.42;;;3.13;;
793;SDS011;380;48.738;9.214;2023-08-30T10:16:49;4.82;;;2.10;;
793;SDS011;380;48.738;9.214;2023-08-30T10:19:17;3.83;;;2.78;;
793;SDS011;380;48.738;9.214;2023-08-30T10:21:48;5.93;;;2.50;;
793;SDS011;380;48.738;9.214;2023-08-30T10:24:17;2.83;;;2.45;;
793;SDS011;380;48.738;9.214;2023-08-30T10:26:44;4.28;;;2.80;;
793;SDS011;380;48.738;9.214;2023-08-30T10:29:12;2.63;;;2.00;;
793;SDS011;380;48.738;9.214;2023-08-30T10:31:38;2.97;;;2.13;;
793;SDS011;380;48.738;9.214;2023-08-30T10:34:12;2.83;;;1.92;;
793;SDS011;380;48.738;9.214;2023-08-30T10:36:39;3.60;;;2.20;;
793;SDS011;380;48.738;9.214;2023-08-30T10:39:10;2.78;;;2.33;;
793;SDS011;380;48.738;9.214;2023-08-30T10:41:36;2.58;;;2.30;;
793;SDS011;380;48.738;9.214;2023-08-30T10:44:02;2.95;;;2.15;;
793;SDS011;380;48.738;9.214;2023-08-30T10:46:33;2.55;;;2.25;;
793;SDS011;380;48.738;9.214;2023-08-30T10:49:08;2.95;;;2.08;;
793;SDS011;380;48.738;9.214;2023-08-30T10:51:35;4.20;;;2.10;;
793;SDS011;380;48.738;9.214;2023-08-30T10:54:09;1.92;;;1.48;;
793;SDS011;380;48.738;9.214;2023-08-30T10:56:35;3.50;;;2.00;;
793;SDS011;380;48.738;9.214;2023-08-30T10:59:04;2.90;;;1.95;;
793;SDS011;380;48.738;9.214;2023-08-30T11:01:30;2.50;;;1.80;;
793;SDS011;380;48.738;9.214;2023-08-30T11:03:57;2.95;;;2.15;;
793;SDS011;380;48.738;9.214;2023-08-30T11:06:23;2.83;;;1.92;;
793;SDS011;380;48.738;9.214;2023-08-30T11:08:49;2.40;;;1.90;;
793;SDS011;380;48.738;9.214;2023-08-30T11:11:15;2.63;;;1.88;;
793;SDS011;380;48.738;9.214;2023-08-30T11:13:41;3.38;;;2.28;;
793;SDS011;380;48.738;9.214;2023-08-30T11:16:07;2.55;;;1.90;;
793;SDS011;380;48.738;9.214;2023-08-30T11:18:37;2.70;;;2.10;;
793;SDS011;380;48.738;9.214;2023-08-30T11:21:04;4.10;;;1.77;;
793;SDS011;380;48.738;9.214;2023-08-30T11:23:31;2.60;;;2.15;;
793;SDS011;380;48.738;9.214;2023-08-30T11:25:57;2.60;;;2.30;;
793;SDS011;380;48.738;9.214;2023-08-30T11:28:24;3.65;;;2.38;;
793;SDS011;380;48.738;9.214;2023-08-30T11:30:52;2.50;;;1.80;;
793;SDS011;380;48.738;9.214;2023-08-30T11:33:19;2.67;;;1.88;;
793;SDS011;380;48.738;9.214;2023-08-30T11:35:44;3.53;;;2.05;;
793;SDS011;380;48.738;9.214;2023-08-30T11:38:11;4.38;;;2.38;;
793;SDS011;380;48.738;9.214;2023-08-30T11:40:38;2.40;;;1.90;;
793;SDS011;380;48.738;9.214;2023-08-30T11:43:04;2.30;;;1.75;;
793;SDS011;380;48.738;9.214;2023-08-30T11:45:32;2.33;;;1.80;;
793;SDS011;380;48.738;9.214;2023-08-30T11:48:01;2.25;;;1.55;;
793;SDS011;380;48.738;9.214;2023-08-30T11:50:27;2.75;;;1.92;;
793;SDS011;380;48.738;9.214;2023-08-30T11:52:54;2.40;;;1.83;;
793;SDS011;380;48.738;9.214;2023-08-30T11:55:20;2.97;;;2.05;;
793;SDS011;380;48.738;9.214;2023-08-30T11:57:49;3.30;;;1.95;;
793;SDS011;380;48.738;9.214;2023-08-30T12:00:17;2.80;;;1.42;;
793;SDS011;380;48.738;9.214;2023-08-30T12:02:43;2.22;;;1.80;;
793;SDS011;380;48.738;9.214;2023-08-30T12:05:11;3.13;;;1.67;;
793;SDS011;380;48.738;9.214;2023-08-30T12:07:38;2.80;;;2.00;;
793;SDS011;380;48.738;9.214;2023-08-30T12:10:08;2.63;;;1.95;;
793;SDS011;380;48.738;9.214;2023-08-30T12:12:34;2.60;;;1.70;;
793;SDS011;380;48.738;9.214;2023-08-30T12:15:12;2.40;;;1.55;;
793;SDS011;380;48.738;9.214;2023-08-30T12:17:40;2.15;;;1.30;;
793;SDS011;380;48.738;9.214;2023-08-30T12:20:06;2.60;;;1.73;;
793;SDS011;380;48.738;9.214;2023-08-30T12:22:36;2.25;;;1.50;;
793;SDS011;380;48.738;9.214;2023-08-30T12:27:28;2.20;;;1.50;;
793;SDS011;380;48.738;9.214;2023-08-30T12:29:55;2.35;;;1.75;;
793;SDS011;380;48.738;9.214;2023-08-30T12:32:21;2.70;;;1.73;;
793;SDS011;380;48.738;9.214;2023-08-30T12:34:47;2.75;;;1.80;;
793;SDS011;380;48.738;9.214;2023-08-30T12:37:13;2.72;;;1.95;;
793;SDS011;380;48.738;9.214;2023-08-30T12:39:38;2.10;;;1.30;;
793;SDS011;380;48.738;9.214;2023-08-30T12:42:04;2.17;;;1.75;;
793;SDS011;380;48.738;9.214;2023-08-30T12:44:30;2.28;;;1.80;;
793;SDS011;380;48.738;9.214;2023-08-30T12:46:56;3.30;;;2.20;;
793;SDS011;380;48.738;9.214;2023-08-30T12:49:22;3.17;;;2.00;;
793;SDS011;380;48.738;9.214;2023-08-30T12:51:48;2.45;;;1.77;;
793;SDS011;380;48.738;9.214;2023-08-30T12:54:14;2.67;;;1.85;;
793;SDS011;380;48.738;9.214;2023-08-30T12:56:40;2.70;;;2.20;;
793;SDS011;380;48.738;9.214;2023-08-30T12:59:06;2.50;;;1.70;;
793;SDS011;380;48.738;9.214;2023-08-30T13:01:32;3.22;;;2.20;;
793;SDS011;380;48.738;9.214;2023-08-30T13:03:58;2.70;;;1.80;;
793;SDS011;380;48.738;9.214;2023-08-30T13:06:27;2.40;;;1.65;;
793;SDS011;380;48.738;9.214;2023-08-30T13:08:53;2.97;;;2.20;;
793;SDS011;380;48.738;9.214;2023-08-30T13:11:19;3.13;;;2.15;;
793;SDS011;380;48.738;9.214;2023-08-30T13:13:45;2.90;;;2.05;;
793;SDS011;380;48.738;9.214;2023-08-30T13:16:11;2.42;;;1.85;;
793;SDS011;380;48.738;9.214;2023-08-30T13:18:36;2.78;;;2.05;;
793;SDS011;380;48.738;9.214;2023-08-30T13:21:02;2.90;;;2.58;;
793;SDS011;380;48.738;9.214;2023-08-30T13:23:29;2.92;;;2.17;;
793;SDS011;380;48.738;9.214;2023-08-30T13:25:55;2.80;;;2.05;;
793;SDS011;380;48.738;9.214;2023-08-30T13:28:21;2.60;;;2.10;;
793;SDS011;380;48.738;9.214;2023-08-30T13:30:47;3.65;;;2.60;;
793;SDS011;380;48.738;9.214;2023-08-30T13:33:15;2.40;;;1.60;;
793;SDS011;380;48.738;9.214;2023-08-30T13:35:41;2.50;;;1.92;;
793;SDS011;380;48.738;9.214;2023-08-30T13:38:06;4.53;;;2.45;;
793;SDS011;380;48.738;9.214;2023-08-30T13:40:32;2.35;;;1.88;;
793;SDS011;380;48.738;9.214;2023-08-30T13:42:58;3.05;;;2.08;;
793;SDS011;380;48.738;9.214;2023-08-30T13:45:24;2.67;;;1.80;;
793;SDS011;380;48.738;9.214;2023-08-30T13:47:50;2.40;;;1.90;;
793;SDS011;380;48.738;9.214;2023-08-30T13:50:18;2.47;;;1.58;;
793;SDS011;380;48.738;9.214;2023-08-30T13:52:44;2.53;;;1.55;;
793;SDS011;380;48.738;9.214;2023-08-30T13:55:10;3.30;;;1.65;;
793;SDS011;380;48.738;9.214;2023-08-30T13:57:36;3.10;;;1.35;;
793;SDS011;380;48.738;9.214;2023-08-30T14:00:02;2.05;;;1.40;;
793;SDS011;380;48.738;9.214;2023-08-30T14:02:32;2.15;;;1.38;;
793;SDS011;380;48.738;9.214;2023-08-30T14:04:58;2.22;;;1.55;;
793;SDS011;380;48.738;9.214;2023-08-30T14:07:24;2.25;;;1.48;;
793;SDS011;380;48.738;9.214;2023-08-30T14:09:50;3.40;;;1.35;;
793;SDS011;380;48.738;9.214;2023-08-30T14:12:17;3.33;;;1.55;;
793;SDS011;380;48.738;9.214;2023-08-30T14:14:42;2.13;;;1.35;;
793;SDS011;380;48.738;9.214;2023-08-30T14:17:11;2.47;;;1.60;;
793;SDS011;380;48.738;9.214;2023-08-30T14:19:37;1.85;;;1.23;;
793;SDS011;380;48.738;9.214;2023-08-30T14:22:03;2.58;;;1.83;;
793;SDS011;380;48.738;9.214;2023-08-30T14:24:31;1.98;;;1.30;;
793;SDS011;380;48.738;9.214;2023-08-30T14:26:57;2.58;;;1.58;;
793;SDS011;380;48.738;9.214;2023-08-30T14:29:23;2.63;;;1.20;;
793;SDS011;380;48.738;9.214;2023-08-30T14:31:49;2.10;;;1.30;;
793;SDS011;380;48.738;9.214;2023-08-30T14:34:15;2.40;;;1.50;;
793;SDS011;380;48.738;9.214;2023-08-30T14:36:41;2.22;;;1.67;;
793;SDS011;380;48.738;9.214;2023-08-30T14:39:08;2.38;;;1.80;;
793;SDS011;380;48.738;9.214;2023-08-30T14:41:34;2.20;;;1.50;;
793;SDS011;380;48.738;9.214;2023-08-30T14:44:02;1.88;;;1.25;;
793;SDS011;380;48.738;9.214;2023-08-30T14:46:28;2.00;;;1.33;;
793;SDS011;380;48.738;9.214;2023-08-30T14:48:54;2.55;;;1.70;;
793;SDS011;380;48.738;9.214;2023-08-30T14:51:20;5.28;;;1.95;;
793;SDS011;380;48.738;9.214;2023-08-30T14:53:46;2.42;;;1.60;;
793;SDS011;380;48.738;9.214;2023-08-30T14:56:12;2.15;;;1.52;;
793;SDS011;380;48.738;9.214;2023-08-30T14:58:38;2.20;;;1.38;;
793;SDS011;380;48.738;9.214;2023-08-30T15:01:04;2.72;;;1.83;;
793;SDS011;380;48.738;9.214;2023-08-30T15:03:31;2.35;;;1.77;;
793;SDS011;380;48.738;9.214;2023-08-30T15:05:57;2.15;;;1.65;;
793;SDS011;380;48.738;9.214;2023-08-30T15:08:23;2.72;;;2.00;;
793;SDS011;380;48.738;9.214;2023-08-30T15:10:49;2.70;;;1.75;;
793;SDS011;380;48.738;9.214;2023-08-30T15:13:19;2.50;;;1.80;;
793;SDS011;380;48.738;9.214;2023-08-30T15:15:45;2.30;;;1.65;;
793;SDS011;380;48.738;9.214;2023-08-30T15:18:11;5.55;;;1.45;;
793;SDS011;380;48.738;9.214;2023-08-30T15:20:37;2.20;;;1.58;;
793;SDS011;380;48.738;9.214;2023-08-30T15:23:03;2.50;;;1.50;;
793;SDS011;380;48.738;9.214;2023-08-30T15:25:29;2.78;;;1.58;;
793;SDS011;380;48.738;9.214;2023-08-30T15:27:56;2.22;;;1.50;;
793;SDS011;380;48.738;9.214;2023-08-30T15:30:22;2.92;;;1.98;;
793;SDS011;380;48.738;9.214;2023-08-30T15:32:48;2.67;;;1.75;;
793;SDS011;380;48.738;9.214;2023-08-30T15:35:14;2.58;;;1.85;;
793;SDS011;380;48.738;9.214;2023-08-30T15:37:40;3.05;;;1.90;;
793;SDS011;380;48.738;9.214;2023-08-30T15:40:06;1.90;;;1.13;;
793;SDS011;380;48.738;9.214;2023-08-30T15:42:34;1.92;;;1.20;;